createdAt,value
2018-01-27T00:01:58.210Z,90.00
2018-01-27T00:04:25.178Z,90.10
2018-01-27T00:06:52.163Z,89.80
2018-01-27T00:09:19.270Z,89.80
2018-01-27T00:11:46.167Z,89.80
2018-01-27T00:14:13.878Z,90.60
2018-01-27T00:16:40.719Z,90.50
2018-01-27T00:19:07.630Z,90.10
2018-01-27T00:21:35.422Z,90.60
2018-01-27T00:24:02.378Z,90.60
2018-01-27T00:26:29.437Z,90.70
2018-01-27T00:28:56.562Z,90.70
2018-01-27T00:31:23.527Z,90.60
2018-01-27T00:33:50.547Z,90.60
2018-01-27T00:36:17.562Z,90.40
2018-01-27T00:38:44.694Z,91.00
2018-01-27T00:41:11.642Z,90.90
2018-01-27T00:43:39.450Z,90.90
2018-01-27T00:46:06.334Z,90.90
2018-01-27T00:48:35.382Z,91.10
2018-01-27T00:51:02.255Z,91.40
2018-01-27T00:53:29.141Z,91.30
2018-01-27T00:55:56.245Z,91.60
2018-01-27T00:58:23.282Z,91.50
2018-01-27T01:00:50.209Z,91.60
2018-01-27T01:03:17.617Z,91.60
2018-01-27T01:05:44.490Z,91.70
2018-01-27T01:08:12.097Z,91.60
2018-01-27T01:10:40.082Z,91.60
2018-01-27T01:13:07.243Z,91.50
2018-01-27T01:15:34.158Z,91.60
2018-01-27T01:18:00.994Z,91.70
2018-01-27T01:20:28.119Z,91.60
2018-01-27T01:22:54.973Z,91.80
2018-01-27T01:25:21.838Z,92.10
2018-01-27T01:27:48.794Z,91.70
2018-01-27T01:30:16.406Z,91.40
2018-01-27T01:32:44.093Z,91.40
2018-01-27T01:35:11.033Z,91.40
2018-01-27T01:37:37.993Z,91.60
2018-01-27T01:40:04.882Z,91.30
2018-01-27T01:42:37.773Z,91.60
2018-01-27T01:45:05.551Z,91.50
2018-01-27T01:47:32.471Z,91.50
2018-01-27T01:50:00.178Z,91.90
2018-01-27T01:52:27.969Z,91.70
2018-01-27T01:54:54.868Z,91.70
2018-01-27T01:57:22.582Z,91.80
2018-01-27T01:59:49.696Z,91.80
2018-01-27T02:02:16.533Z,91.30
2018-01-27T02:04:44.146Z,90.90
2018-01-27T02:07:11.078Z,90.90
2018-01-27T02:09:38.147Z,90.60
2018-01-27T02:12:05.078Z,91.10
2018-01-27T02:14:31.970Z,91.30
2018-01-27T02:16:58.824Z,91.70
2018-01-27T02:19:25.778Z,91.60
2018-01-27T02:21:52.644Z,91.40
2018-01-27T02:24:19.661Z,91.70
2018-01-27T02:26:46.626Z,91.50
2018-01-27T02:29:13.613Z,92.20
2018-01-27T02:31:40.542Z,92.40
2018-01-27T02:34:07.405Z,92.30
2018-01-27T02:36:34.247Z,92.30
2018-01-27T02:39:02.150Z,92.00
2018-01-27T02:41:29.106Z,92.00
2018-01-27T02:43:55.959Z,91.80
2018-01-27T02:46:22.819Z,91.70
2018-01-27T02:48:49.821Z,91.70
2018-01-27T02:51:16.871Z,92.40
2018-01-27T02:53:43.809Z,92.70
2018-01-27T02:56:11.451Z,91.80
2018-01-27T02:58:39.085Z,91.80
2018-01-27T03:01:05.942Z,91.80
2018-01-27T03:03:32.845Z,92.00
2018-01-27T03:05:59.875Z,91.90
2018-01-27T03:08:26.765Z,92.20
2018-01-27T03:10:53.806Z,92.30
2018-01-27T03:13:20.685Z,92.30
2018-01-27T03:15:47.665Z,92.20
2018-01-27T03:18:14.636Z,91.70
2018-01-27T03:20:41.694Z,91.70
2018-01-27T03:23:09.387Z,91.70
2018-01-27T03:25:36.306Z,91.60
2018-01-27T03:28:03.162Z,91.70
2018-01-27T03:30:30.131Z,92.00
2018-01-27T03:32:57.754Z,91.80
2018-01-27T03:35:24.622Z,91.80
2018-01-27T03:37:51.470Z,91.20
2018-01-27T03:40:18.475Z,91.20
2018-01-27T03:42:45.349Z,90.80
2018-01-27T03:45:12.285Z,91.20
2018-01-27T03:47:39.289Z,91.30
2018-01-27T03:50:06.274Z,91.10
2018-01-27T03:52:33.145Z,91.00
2018-01-27T03:55:01.390Z,91.60
2018-01-27T03:57:28.362Z,91.50
2018-01-27T03:59:56.154Z,91.10
2018-01-27T04:02:23.083Z,91.10
2018-01-27T04:04:49.907Z,90.80
2018-01-27T04:07:16.781Z,90.70
2018-01-27T04:09:44.449Z,90.40
2018-01-27T04:12:12.221Z,90.60
2018-01-27T04:14:39.125Z,90.60
2018-01-27T04:17:06.849Z,91.10
2018-01-27T04:19:35.067Z,91.10
2018-01-27T04:22:01.999Z,91.10
2018-01-27T04:24:28.841Z,91.70
2018-01-27T04:26:55.705Z,91.60
2018-01-27T04:29:22.799Z,91.30
2018-01-27T04:31:49.626Z,91.50
2018-01-27T04:34:16.505Z,91.40
2018-01-27T04:36:43.502Z,91.10
2018-01-27T04:39:10.425Z,91.20
2018-01-27T04:41:37.562Z,91.00
2018-01-27T04:44:04.574Z,90.90
2018-01-27T04:46:31.642Z,90.50
2018-01-27T04:48:59.350Z,91.20
2018-01-27T04:51:26.225Z,91.20
2018-01-27T04:53:53.115Z,90.90
2018-01-27T04:56:19.954Z,91.20
2018-01-27T04:58:47.664Z,90.60
2018-01-27T05:01:14.777Z,90.60
2018-01-27T05:03:41.671Z,91.00
2018-01-27T05:06:09.386Z,91.10
2018-01-27T05:08:36.306Z,91.10
2018-01-27T05:11:03.138Z,90.80
2018-01-27T05:13:30.952Z,91.50
2018-01-27T05:15:57.982Z,91.10
2018-01-27T05:18:24.994Z,90.80
2018-01-27T05:20:52.013Z,91.20
2018-01-27T05:23:18.963Z,91.40
2018-01-27T05:25:45.832Z,91.50
2018-01-27T05:28:12.933Z,91.90
2018-01-27T05:30:40.722Z,91.80
2018-01-27T05:33:07.621Z,91.70
2018-01-27T05:35:34.504Z,91.70
2018-01-27T05:38:01.374Z,91.80
2018-01-27T05:40:28.274Z,91.90
2018-01-27T05:42:55.152Z,91.60
2018-01-27T05:45:22.014Z,91.80
2018-01-27T05:47:48.918Z,91.90
2018-01-27T05:50:15.805Z,92.10
2018-01-27T05:52:42.709Z,91.90
2018-01-27T05:55:10.619Z,92.20
2018-01-27T05:57:37.512Z,92.10
2018-01-27T06:00:04.494Z,92.00
2018-01-27T06:02:32.142Z,91.80
2018-01-27T06:04:59.207Z,91.80
2018-01-27T06:07:26.159Z,91.50
2018-01-27T06:09:53.165Z,91.70
2018-01-27T06:12:20.042Z,91.90
2018-01-27T06:14:46.917Z,91.90
2018-01-27T06:17:14.527Z,92.00
2018-01-27T06:19:41.605Z,92.00
2018-01-27T06:22:08.822Z,92.00
2018-01-27T06:24:35.877Z,91.90
2018-01-27T06:27:03.599Z,92.10
2018-01-27T06:29:31.262Z,91.80
2018-01-27T06:31:58.837Z,91.90
2018-01-27T06:34:25.934Z,91.90
2018-01-27T06:36:53.014Z,92.00
2018-01-27T06:39:20.038Z,92.00
2018-01-27T06:41:46.995Z,91.90
2018-01-27T06:44:14.085Z,91.90
2018-01-27T06:46:41.673Z,91.70
2018-01-27T06:49:08.576Z,91.70
2018-01-27T06:51:35.438Z,91.90
2018-01-27T06:54:02.994Z,92.10
2018-01-27T06:56:29.967Z,92.00
2018-01-27T06:58:56.989Z,91.70
2018-01-27T07:01:24.071Z,91.50
2018-01-27T07:03:51.123Z,91.20
2018-01-27T07:06:18.127Z,91.60
2018-01-27T07:08:45.046Z,92.00
2018-01-27T07:11:12.090Z,91.70
2018-01-27T07:13:39.190Z,91.70
2018-01-27T07:16:06.910Z,92.00
2018-01-27T07:18:33.786Z,92.00
2018-01-27T07:21:00.757Z,91.70
2018-01-27T07:23:27.621Z,91.70
2018-01-27T07:25:54.481Z,91.90
2018-01-27T07:28:22.056Z,91.30
2018-01-27T07:30:48.998Z,91.30
2018-01-27T07:33:15.876Z,92.00
2018-01-27T07:35:42.774Z,92.20
2018-01-27T07:38:10.402Z,91.40
2018-01-27T07:40:37.266Z,91.40
2018-01-27T07:43:04.106Z,91.20
2018-01-27T07:45:31.222Z,91.50
2018-01-27T07:47:58.990Z,91.20
2018-01-27T07:50:25.954Z,91.20
2018-01-27T07:52:53.123Z,91.30
2018-01-27T07:55:20.201Z,91.60
2018-01-27T07:57:47.182Z,91.50
2018-01-27T08:00:14.322Z,91.30
2018-01-27T08:02:41.974Z,90.90
2018-01-27T08:05:08.871Z,90.90
2018-01-27T08:07:35.766Z,91.40
2018-01-27T08:10:02.965Z,91.50
2018-01-27T08:12:30.886Z,91.90
2018-01-27T08:14:57.809Z,91.90
2018-01-27T08:17:24.779Z,91.60
2018-01-27T08:19:51.825Z,91.30
2018-01-27T08:22:19.010Z,91.10
2018-01-27T08:24:46.073Z,91.40
2018-01-27T08:27:13.187Z,91.30
2018-01-27T08:29:41.009Z,91.60
2018-01-27T08:32:07.886Z,91.60
2018-01-27T08:34:34.758Z,91.60
2018-01-27T08:37:01.889Z,91.90
2018-01-27T08:39:28.867Z,91.40
2018-01-27T08:41:55.907Z,91.50
2018-01-27T08:44:22.883Z,91.60
2018-01-27T08:46:49.797Z,91.60
2018-01-27T08:49:17.814Z,91.50
2018-01-27T08:51:44.911Z,91.50
2018-01-27T08:54:11.954Z,91.60
2018-01-27T08:56:38.825Z,91.50
2018-01-27T08:59:06.522Z,91.00
2018-01-27T09:01:33.389Z,91.00
2018-01-27T09:04:01.239Z,91.40
2018-01-27T09:06:28.161Z,91.40
2018-01-27T09:08:55.087Z,91.10
2018-01-27T09:11:21.934Z,91.50
2018-01-27T09:13:49.711Z,92.00
2018-01-27T09:16:16.930Z,92.00
2018-01-27T09:18:43.954Z,91.60
2018-01-27T09:21:11.680Z,92.50
2018-01-27T09:23:38.686Z,92.50
2018-01-27T09:26:06.289Z,92.00
2018-01-27T09:28:33.215Z,92.00
2018-01-27T09:31:01.058Z,91.90
2018-01-27T09:33:28.098Z,91.90
2018-01-27T09:35:55.207Z,91.50
2018-01-27T09:38:22.117Z,91.70
2018-01-27T09:40:49.161Z,91.50
2018-01-27T09:43:16.234Z,91.10
2018-01-27T09:45:43.258Z,91.20
2018-01-27T09:48:10.849Z,91.20
2018-01-27T09:50:37.982Z,91.20
2018-01-27T09:53:05.010Z,90.70
2018-01-27T09:55:31.970Z,90.90
2018-01-27T09:57:58.814Z,91.30
2018-01-27T10:00:25.972Z,91.10
2018-01-27T10:02:52.918Z,91.00
2018-01-27T10:05:20.102Z,91.30
2018-01-27T10:07:47.070Z,91.70
2018-01-27T10:10:14.062Z,91.50
2018-01-27T10:12:41.713Z,91.70
2018-01-27T10:15:08.690Z,91.70
2018-01-27T10:17:35.670Z,92.40
2018-01-27T10:20:02.773Z,92.10
2018-01-27T10:22:29.917Z,91.50
2018-01-27T10:24:56.834Z,91.60
2018-01-27T10:27:24.751Z,91.50
2018-01-27T10:29:51.922Z,91.40
2018-01-27T10:32:18.922Z,91.90
2018-01-27T10:34:45.978Z,91.90
2018-01-27T10:37:12.850Z,91.90
2018-01-27T10:39:40.067Z,92.40
2018-01-27T10:42:07.845Z,92.50
2018-01-27T10:44:34.749Z,92.40
2018-01-27T10:47:01.614Z,92.20
2018-01-27T10:49:28.567Z,92.10
2018-01-27T10:51:55.642Z,92.40
2018-01-27T10:54:22.725Z,92.50
2018-01-27T10:56:49.637Z,92.10
2018-01-27T10:59:16.726Z,91.80
2018-01-27T11:01:43.800Z,91.70
2018-01-27T11:04:10.762Z,91.80
2018-01-27T11:06:38.425Z,91.40
2018-01-27T11:09:05.410Z,91.40
2018-01-27T11:11:32.393Z,91.50
2018-01-27T11:13:59.227Z,91.00
2018-01-27T11:16:27.033Z,92.00
2018-01-27T11:18:53.943Z,91.80
2018-01-27T11:21:20.954Z,91.60
2018-01-27T11:23:47.890Z,92.20
2018-01-27T11:26:15.150Z,91.70
2018-01-27T11:28:43.134Z,91.50
2018-01-27T11:31:09.987Z,91.70
2018-01-27T11:33:37.558Z,91.20
2018-01-27T11:36:04.617Z,91.20
2018-01-27T11:38:31.631Z,91.20
2018-01-27T11:40:58.590Z,90.80
2018-01-27T11:43:25.474Z,90.60
2018-01-27T11:45:52.357Z,90.70
2018-01-27T11:48:19.433Z,90.60
2018-01-27T11:50:47.240Z,90.70
2018-01-27T11:53:14.354Z,90.70
2018-01-27T11:55:42.034Z,91.30
2018-01-27T11:58:09.709Z,91.10
2018-01-27T12:00:36.802Z,91.00
2018-01-27T12:03:04.474Z,91.40
2018-01-27T12:05:31.330Z,91.40
2018-01-27T12:07:58.291Z,91.30
2018-01-27T12:10:25.462Z,91.30
2018-01-27T12:12:52.394Z,91.10
2018-01-27T12:15:19.521Z,91.60
2018-01-27T12:17:46.700Z,91.30
2018-01-27T12:20:13.841Z,90.90
2018-01-27T12:22:40.830Z,91.20
2018-01-27T12:25:07.730Z,90.90
2018-01-27T12:27:34.757Z,90.70
2018-01-27T12:30:01.662Z,90.60
2018-01-27T12:32:29.482Z,90.50
2018-01-27T12:34:56.496Z,90.50
2018-01-27T12:37:24.209Z,91.10
2018-01-27T12:39:51.198Z,91.10
2018-01-27T12:42:18.918Z,90.90
2018-01-27T12:44:45.829Z,90.90
2018-01-27T12:47:12.847Z,91.20
2018-01-27T12:49:39.966Z,91.80
2018-01-27T12:52:06.898Z,91.10
2018-01-27T12:54:34.631Z,91.00
2018-01-27T12:57:01.619Z,91.00
2018-01-27T12:59:29.391Z,91.60
2018-01-27T13:01:57.024Z,91.50
2018-01-27T13:04:24.054Z,91.50
2018-01-27T13:06:51.074Z,91.60
2018-01-27T13:09:18.140Z,91.00
2018-01-27T13:11:45.085Z,90.90
2018-01-27T13:14:12.979Z,91.20
2018-01-27T13:16:39.861Z,91.20
2018-01-27T13:19:06.942Z,91.80
2018-01-27T13:21:40.979Z,91.70
2018-01-27T13:24:08.014Z,91.60
2018-01-27T13:26:34.986Z,91.40
2018-01-27T13:29:02.000Z,91.30
2018-01-27T13:31:28.813Z,90.80
2018-01-27T13:33:56.559Z,91.00
2018-01-27T13:36:23.549Z,91.00
2018-01-27T13:38:51.430Z,91.30
2018-01-27T13:41:18.461Z,91.20
2018-01-27T13:43:45.465Z,91.20
2018-01-27T13:46:12.370Z,92.00
2018-01-27T13:48:39.342Z,92.00
2018-01-27T13:51:06.328Z,91.70
2018-01-27T13:53:33.239Z,91.30
2018-01-27T13:56:00.126Z,91.40
2018-01-27T13:58:27.738Z,93.00
2018-01-27T14:00:54.881Z,93.00
2018-01-27T14:03:21.909Z,93.50
2018-01-27T14:05:48.864Z,93.20
2018-01-27T14:08:15.674Z,93.80
2018-01-27T14:10:42.629Z,94.10
2018-01-27T14:13:10.231Z,92.90
2018-01-27T14:15:37.120Z,92.90
2018-01-27T14:18:03.998Z,92.90
2018-01-27T14:20:30.874Z,92.40
2018-01-27T14:22:58.599Z,91.90
2018-01-27T14:25:25.562Z,91.90
2018-01-27T14:27:52.430Z,91.60
2018-01-27T14:30:19.489Z,91.90
2018-01-27T14:32:46.486Z,92.00
2018-01-27T14:35:13.470Z,92.50
2018-01-27T14:37:41.127Z,92.60
2018-01-27T14:40:08.107Z,92.60
2018-01-27T14:42:35.181Z,92.20
2018-01-27T14:45:02.235Z,92.60
2018-01-27T14:47:29.118Z,92.50
2018-01-27T14:49:56.095Z,92.80
2018-01-27T14:52:22.957Z,92.90
2018-01-27T14:54:49.984Z,92.80
2018-01-27T14:57:17.141Z,92.80
2018-01-27T14:59:44.278Z,92.50
2018-01-27T15:02:11.390Z,92.30
2018-01-27T15:04:38.422Z,92.30
2018-01-27T15:07:05.417Z,92.10
2018-01-27T15:09:32.491Z,92.20
2018-01-27T15:11:59.542Z,92.40
2018-01-27T15:14:26.475Z,92.60
2018-01-27T15:16:53.456Z,92.80
2018-01-27T15:19:20.455Z,93.00
2018-01-27T15:21:47.403Z,92.90
2018-01-27T15:24:14.366Z,93.00
2018-01-27T15:26:42.070Z,93.30
2018-01-27T15:29:09.890Z,94.00
2018-01-27T15:31:36.980Z,93.60
2018-01-27T15:34:04.633Z,93.20
2018-01-27T15:36:38.102Z,93.10
2018-01-27T15:39:05.158Z,93.00
2018-01-27T15:41:32.160Z,93.20
2018-01-27T15:43:59.139Z,93.50
2018-01-27T15:46:26.132Z,93.00
2018-01-27T15:48:53.358Z,92.80
2018-01-27T15:51:20.361Z,93.10
2018-01-27T15:53:47.324Z,93.10
2018-01-27T15:56:14.230Z,92.50
2018-01-27T15:58:41.133Z,93.10
2018-01-27T16:01:08.889Z,92.60
2018-01-27T16:03:35.831Z,92.60
2018-01-27T16:06:02.730Z,92.80
2018-01-27T16:08:29.657Z,93.00
2018-01-27T16:10:56.645Z,93.20
2018-01-27T16:13:23.611Z,93.00
2018-01-27T16:15:50.551Z,93.00
2018-01-27T16:18:17.519Z,93.50
2018-01-27T16:20:44.545Z,93.40
2018-01-27T16:23:11.497Z,93.50
2018-01-27T16:25:38.438Z,93.20
2018-01-27T16:28:05.365Z,93.10
2018-01-27T16:30:32.449Z,93.10
2018-01-27T16:32:59.484Z,92.50
2018-01-27T16:35:26.466Z,92.80
2018-01-27T16:37:53.465Z,92.70
2018-01-27T16:40:20.602Z,93.20
2018-01-27T16:42:48.714Z,93.30
2018-01-27T16:45:17.388Z,93.40
2018-01-27T16:47:44.416Z,93.20
2018-01-27T16:50:24.632Z,93.60
2018-01-27T16:52:58.380Z,93.50
2018-01-27T16:55:26.260Z,93.60
2018-01-27T16:57:54.080Z,93.50
2018-01-27T17:00:21.874Z,93.60
2018-01-27T17:02:48.941Z,93.60
2018-01-27T17:05:16.808Z,93.90
2018-01-27T17:07:44.629Z,93.50
2018-01-27T17:10:12.495Z,93.30
2018-01-27T17:12:39.528Z,93.30
2018-01-27T17:15:07.113Z,93.60
2018-01-27T17:17:34.026Z,93.60
2018-01-27T17:20:00.995Z,93.10
2018-01-27T17:22:27.904Z,93.10
2018-01-27T17:24:55.642Z,93.60
2018-01-27T17:27:22.730Z,93.50
2018-01-27T17:29:56.830Z,93.20
2018-01-27T17:32:23.899Z,93.90
2018-01-27T17:34:50.906Z,94.20
2018-01-27T17:37:19.051Z,93.70
2018-01-27T17:39:49.790Z,93.40
2018-01-27T17:42:17.666Z,93.70
2018-01-27T17:44:45.350Z,94.20
2018-01-27T17:53:15.558Z,93.80
2018-01-27T17:55:42.709Z,94.60
2018-01-27T17:58:09.794Z,94.30
2018-01-27T18:00:36.920Z,95.10
2018-01-27T18:03:04.762Z,94.40
2018-01-27T18:05:31.732Z,94.40
2018-01-27T18:07:59.684Z,94.90
2018-01-27T18:10:26.735Z,94.80
2018-01-27T18:12:53.759Z,95.10
2018-01-27T18:15:20.839Z,94.80
2018-01-27T18:17:47.804Z,94.80
2018-01-27T18:23:11.020Z,95.30
2018-01-27T18:25:38.122Z,95.40
2018-01-27T18:28:05.291Z,94.90
2018-01-27T18:30:33.170Z,94.90
2018-01-27T18:33:00.423Z,94.60
2018-01-27T18:35:27.430Z,94.40
2018-01-27T18:37:55.061Z,94.00
2018-01-27T18:40:22.114Z,93.90
2018-01-27T18:42:48.966Z,94.50
2018-01-27T18:45:16.001Z,94.50
2018-01-27T18:47:43.026Z,94.20
2018-01-27T18:50:10.173Z,94.10
2018-01-27T18:52:37.070Z,93.90
2018-01-27T18:55:04.121Z,94.40
2018-01-27T18:57:31.182Z,94.60
2018-01-27T18:59:58.326Z,94.70
2018-01-27T19:02:25.295Z,94.30
2018-01-27T19:04:52.209Z,93.80
2018-01-27T19:07:20.483Z,94.40
2018-01-27T19:09:47.502Z,94.40
2018-01-27T19:12:14.458Z,94.40
2018-01-27T19:14:41.442Z,94.80
2018-01-27T19:17:08.492Z,94.80
2018-01-27T19:19:35.586Z,94.90
2018-01-27T19:22:02.506Z,94.80
2018-01-27T19:24:30.203Z,94.10
2018-01-27T19:26:57.278Z,94.00
2018-01-27T19:29:25.179Z,94.50
2018-01-27T19:31:53.051Z,94.50
2018-01-27T19:34:20.157Z,94.10
2018-01-27T19:36:47.198Z,94.60
2018-01-27T19:39:14.282Z,94.90
2018-01-27T19:41:41.214Z,94.70
2018-01-27T19:44:08.207Z,94.70
2018-01-27T19:46:35.346Z,93.40
2018-01-27T19:49:02.415Z,93.50
2018-01-27T19:51:29.347Z,93.70
2018-01-27T19:53:56.554Z,94.00
2018-01-27T19:56:23.546Z,94.30
2018-01-27T19:58:50.677Z,93.90
2018-01-27T20:01:17.686Z,93.20
2018-01-27T20:03:44.879Z,93.50
2018-01-27T20:06:12.030Z,94.10
2018-01-27T20:08:39.054Z,94.20
2018-01-27T20:11:06.143Z,94.10
2018-01-27T20:13:33.820Z,94.40
2018-01-27T20:16:00.690Z,94.40
2018-01-27T20:18:27.743Z,94.40
2018-01-27T20:20:54.882Z,94.70
2018-01-27T20:23:22.095Z,94.50
2018-01-27T20:25:49.278Z,94.30
2018-01-27T20:28:16.927Z,94.10
2018-01-27T20:30:43.826Z,94.10
2018-01-27T20:33:11.593Z,93.90
2018-01-27T20:35:38.718Z,93.90
2018-01-27T20:38:05.711Z,94.50
2018-01-27T20:40:32.759Z,94.80
2018-01-27T20:42:59.661Z,94.30
2018-01-27T20:45:26.485Z,94.70
2018-01-27T20:47:53.606Z,94.40
2018-01-27T20:50:20.594Z,94.10
2018-01-27T20:52:47.525Z,94.00
2018-01-27T20:55:14.556Z,94.10
2018-01-27T20:57:41.477Z,94.40
2018-01-27T21:00:09.158Z,94.40
2018-01-27T21:02:36.165Z,94.40
2018-01-27T21:05:03.146Z,94.50
2018-01-27T21:07:30.107Z,94.50
2018-01-27T21:09:57.178Z,93.80
2018-01-27T21:12:24.971Z,94.10
2018-01-27T21:14:51.962Z,94.10
2018-01-27T21:17:18.958Z,94.20
2018-01-27T21:19:46.030Z,94.90
2018-01-27T21:22:13.842Z,95.70
2018-01-27T21:24:41.514Z,95.40
2018-01-27T21:27:08.431Z,95.40
2018-01-27T21:29:35.526Z,95.90
2018-01-27T21:32:02.354Z,95.90
2018-01-27T21:34:30.133Z,95.00
2018-01-27T21:36:57.117Z,95.00
2018-01-27T21:39:24.152Z,95.40
2018-01-27T21:41:51.215Z,95.40
2018-01-27T21:44:18.214Z,95.40
2018-01-27T21:46:45.935Z,94.60
2018-01-27T21:49:13.871Z,94.50
2018-01-27T21:51:40.735Z,94.70
2018-01-27T21:54:07.649Z,94.80
2018-01-27T21:56:35.334Z,94.20
2018-01-27T21:59:02.279Z,94.20
2018-01-27T22:01:29.346Z,95.20
2018-01-27T22:03:56.322Z,95.00
2018-01-27T22:06:23.948Z,94.40
2018-01-27T22:08:50.922Z,94.40
2018-01-27T22:11:18.042Z,94.70
2018-01-27T22:13:44.983Z,94.70
2018-01-27T22:16:11.867Z,95.20
2018-01-27T22:18:38.753Z,95.40
2018-01-27T22:21:05.775Z,95.40
2018-01-27T22:23:33.434Z,95.50
2018-01-27T22:26:05.847Z,94.90
2018-01-27T22:28:32.799Z,94.80
2018-01-27T22:31:01.466Z,95.10
2018-01-27T22:33:28.442Z,95.40
2018-01-27T22:35:55.695Z,95.20
2018-01-27T22:38:23.482Z,95.30
2018-01-27T22:40:50.533Z,95.20
2018-01-27T22:43:17.528Z,95.40
2018-01-27T22:45:44.375Z,95.00
2018-01-27T22:48:11.498Z,95.60
2018-01-27T22:50:38.481Z,95.40
2018-01-27T22:53:05.434Z,96.40
2018-01-27T22:55:32.470Z,96.10
2018-01-27T22:57:59.470Z,95.90
2018-01-27T23:00:26.444Z,95.70
2018-01-27T23:02:53.330Z,95.60
2018-01-27T23:05:20.347Z,95.90
2018-01-27T23:07:47.235Z,95.70
2018-01-27T23:10:15.131Z,96.20
2018-01-27T23:12:42.066Z,96.20
2018-01-27T23:15:09.083Z,96.30
2018-01-27T23:17:35.985Z,96.10
2018-01-27T23:20:03.001Z,95.80
2018-01-27T23:22:29.964Z,95.90
2018-01-27T23:24:56.947Z,96.50
2018-01-27T23:27:23.893Z,96.50
2018-01-27T23:29:50.795Z,96.80
2018-01-27T23:32:17.797Z,96.80
2018-01-27T23:34:44.674Z,96.70
2018-01-27T23:37:12.351Z,96.70
2018-01-27T23:39:40.047Z,96.80
2018-01-27T23:42:06.902Z,96.80
2018-01-27T23:44:33.790Z,96.50
2018-01-27T23:47:01.418Z,96.60
2018-01-27T23:49:28.401Z,96.50
2018-01-27T23:51:55.280Z,97.20
2018-01-27T23:54:22.147Z,97.20
2018-01-27T23:56:49.137Z,96.20
2018-01-27T23:59:16.797Z,96.20
